Casper, WY

10:41 AM MDT on July 02, 2015 (GMT -0600)
ARS - W7BLM, Casper Wy. | | Change Station
CLOSE
Current Station
Personal Weather Station
Location: Casper, WY
Elevation: 5186 ft
Nearby Weather Stations
Active Advisory: Special Statement

Elev 5186 ft 42.83 °N, 106.35 °W | Updated 10 seconds ago

Clear
Clear
73.4 °F
Feels Like 77 °F
N
1.3
Wind Variable Wind from SE
Gusts 2.5 mph

Today
High -- | Low -- °F
--% Chance of Precip.
Yesterday
High -- | Low -- °F
Precip. -- in
5:30 AM 8:47 PM
Full, 100% visible
Pressure 30.05 in
Visibility 10.0 miles
Clouds Few 6000 ft
Heat Index 77 °F
Dew Point 56 °F
Humidity 54%
Rainfall 0.00 in
Snow Depth Not available.
UV 5.0 out of 12
Pollen 4.20 out of 12
Air Quality Not available.
Flu Activity Not available.
METAR KCPR 021553Z 00000KT 10SM FEW060 22/14 A3023 RMK AO2 SLP175 T02170139

More Conditions Fewer Conditions

Pressure 30.05 in
Visibility 10.0 miles
Clouds Few 6000 ft
Heat Index 77 °F
Dew Point 56 °F
Humidity 54%
Rainfall 0.00 in
Snow Depth Not available.
UV 5.0 out of 12
Pollen 4.20 out of 12
Air Quality Not available.
Flu Activity Not available.
METAR KCPR 021553Z 00000KT 10SM FEW060 22/14 A3023 RMK AO2 SLP175 T02170139

More Conditions Fewer Conditions

10-Day Weather Forecast

×

Almanac

Astronomy

Jul. 02, 2015 Rise Set
Actual Time
Civil Twilight
Nautical Twilight
Astronomical Twilight
Moon
Length of Visible Light
Length of Day
Tomorrow will be .
, % of the Moon is Illuminated

Today's Extremes

State Highs State Lows

Community

WunderPhotos

Upload Photos

1,834,498 photos uploaded!

WunderBlogs® & News

Nearby

Air Quality

  Air Quality AQ Index Pollutant
Not available.

Snow Depth

Station Depth Elevation

Earthquake Activity

City Distance Mag. Time & Date
Minimum magnitude displayed is 2.5.

Coastal Water Temperatures

Place Temperature

Stations

Nearby Weather Stations

Station Location Temp. Windchill Dew Point Humidity Wind Precip. Elev Updated Type
                   
Special Statement
Statement as of 7:41 AM MDT on July 02, 2015

... Smoky skies this morning...

The smoke across the area this morning has filtered in from
wildfires located in Canada. Hazy conditions will continue
through this morning... and possibly into the afternoon and evening
hours.


Anglin


741 am MDT Thu Jul 2 2015

... Smoky skies this morning...

The smoke across the area this morning has filtered in from
wildfires located in Canada. Hazy conditions will continue
through this morning... and possibly into the afternoon and evening
hours.


Anglin